Wetterdaten: Woche 29.08.16 - 04.09.16 (KW35)
Datum Zeit Temp. A. Feuchte A. Luftdruck Regen Wind Richtung Sonnenschein ET UV Solar Taupunkt Windchill Windben Empfang
29.08.2016 00:00 21,6 C 82 % 1014,1 hPa 0,0 l/m 5,5 km/h (1 Bft) SW 0,00 h 0,000 mm 0,0 UV-I 0 W/m 18,5 C 21,6 C 7,9 km/h (2 Bft) 98,01 %
29.08.2016 01:00 21,4 C 83 % 1013,9 hPa 0,0 l/m 5,9 km/h (2 Bft) S-SW 0,00 h 0,025 mm 0,0 UV-I 0 W/m 18,4 C 21,3 C 8,8 km/h (2 Bft) 99,50 %
29.08.2016 02:00 21,2 C 84 % 1014,0 hPa 0,0 l/m 2,9 km/h (1 Bft) S-SW 0,00 h 0,026 mm 0,0 UV-I 0 W/m 18,4 C 21,2 C 5,2 km/h (1 Bft) 97,62 %
29.08.2016 03:00 20,5 C 87 % 1013,8 hPa 0,0 l/m 0,4 km/h (0 Bft) W-NW 0,00 h 0,000 mm 0,0 UV-I 0 W/m 18,3 C 20,5 C 1,4 km/h (1 Bft) 98,80 %
29.08.2016 04:00 19,8 C 90 % 1013,5 hPa 0,0 l/m 2,3 km/h (1 Bft) SO 0,00 h 0,000 mm 0,0 UV-I 0 W/m 18,1 C 19,8 C 3,8 km/h (1 Bft) 97,87 %
29.08.2016 05:00 19,2 C 91 % 1013,3 hPa 0,0 l/m 0,8 km/h (0 Bft) SO 0,00 h 0,000 mm 0,0 UV-I 0 W/m 17,7 C 19,2 C 2,0 km/h (1 Bft) 98,79 %
29.08.2016 06:00 18,8 C 92 % 1014,4 hPa 0,0 l/m 2,6 km/h (1 Bft) SO 0,00 h 0,000 mm 0,0 UV-I 8 W/m 17,4 C 18,8 C 4,4 km/h (1 Bft) 98,37 %
29.08.2016 07:00 20,3 C 83 % 1015,3 hPa 0,0 l/m 9,9 km/h (2 Bft) W-SW 0,23 h 0,000 mm 0,0 UV-I 89 W/m 17,3 C 19,1 C 15,6 km/h (3 Bft) 99,16 %
29.08.2016 08:00 21,1 C 79 % 1016,3 hPa 0,0 l/m 11,0 km/h (2 Bft) W-SW 0,07 h 0,076 mm 0,6 UV-I 88 W/m 17,3 C 19,7 C 17,3 km/h (3 Bft) 98,16 %
29.08.2016 09:00 20,8 C 77 % 1016,4 hPa 1,0 l/m 3,8 km/h (1 Bft) W-SW 0,00 h 0,076 mm 0,9 UV-I 164 W/m 16,5 C 20,6 C 7,4 km/h (2 Bft) 98,80 %
29.08.2016 10:00 20,4 C 84 % 1016,4 hPa 0,0 l/m 2,2 km/h (1 Bft) N-NW 0,07 h 0,127 mm 1,8 UV-I 257 W/m 17,6 C 20,4 C 4,9 km/h (1 Bft) 98,07 %
29.08.2016 11:00 21,6 C 79 % 1016,6 hPa 0,0 l/m 2,0 km/h (1 Bft) N-NO 0,53 h 0,153 mm 3,3 UV-I 472 W/m 17,9 C 21,6 C 4,7 km/h (1 Bft) 98,83 %
29.08.2016 12:00 23,3 C 73 % 1016,6 hPa 0,0 l/m 4,5 km/h (1 Bft) W-SW 0,33 h 0,304 mm 2,8 UV-I 400 W/m 18,1 C 23,2 C 8,7 km/h (2 Bft) 97,95 %
29.08.2016 13:00 23,0 C 73 % 1016,9 hPa 0,0 l/m 4,8 km/h (1 Bft) W 0,50 h 0,254 mm 2,9 UV-I 393 W/m 17,9 C 22,9 C 11,2 km/h (2 Bft) 98,50 %
29.08.2016 14:00 22,5 C 75 % 1016,9 hPa 0,0 l/m 4,4 km/h (1 Bft) NW 0,07 h 0,254 mm 1,8 UV-I 190 W/m 17,9 C 22,5 C 11,5 km/h (2 Bft) 98,24 %
29.08.2016 15:00 20,6 C 86 % 1017,2 hPa 1,2 l/m 6,2 km/h (2 Bft) S-SW 0,00 h 0,127 mm 0,5 UV-I 71 W/m 18,1 C 20,1 C 10,2 km/h (2 Bft) 98,38 %
29.08.2016 16:00 19,8 C 91 % 1017,1 hPa 0,2 l/m 10,6 km/h (2 Bft) S-SW 0,00 h 0,051 mm 0,7 UV-I 99 W/m 18,3 C 18,3 C 17,3 km/h (3 Bft) 98,57 %
29.08.2016 17:00 19,8 C 88 % 1017,1 hPa 0,0 l/m 7,7 km/h (2 Bft) S-SW 0,00 h 0,076 mm 0,5 UV-I 101 W/m 17,8 C 19,2 C 12,7 km/h (3 Bft) 97,91 %
29.08.2016 18:00 19,9 C 87 % 1017,1 hPa 0,0 l/m 5,3 km/h (1 Bft) SW 0,00 h 0,077 mm 0,0 UV-I 67 W/m 17,6 C 19,8 C 8,5 km/h (2 Bft) 99,30 %
29.08.2016 19:00 19,5 C 87 % 1017,5 hPa 0,0 l/m 5,3 km/h (1 Bft) SW 0,00 h 0,050 mm 0,0 UV-I 18 W/m 17,3 C 19,5 C 8,0 km/h (2 Bft) 98,00 %
29.08.2016 20:00 18,6 C 88 % 1017,9 hPa 0,0 l/m 3,6 km/h (1 Bft) SW 0,00 h 0,026 mm 0,0 UV-I 0 W/m 16,6 C 18,6 C 6,0 km/h (2 Bft) 98,74 %
29.08.2016 21:00 17,9 C 91 % 1018,5 hPa 0,0 l/m 4,1 km/h (1 Bft) S-SW 0,00 h 0,000 mm 0,0 UV-I 0 W/m 16,4 C 17,9 C 6,0 km/h (2 Bft) 98,14 %
29.08.2016 22:00 17,7 C 92 % 1019,0 hPa 0,0 l/m 2,6 km/h (1 Bft) S 0,00 h 0,000 mm 0,0 UV-I 0 W/m 16,4 C 17,7 C 4,2 km/h (1 Bft) 98,80 %
29.08.2016 23:00 17,2 C 93 % 1019,4 hPa 0,0 l/m 3,2 km/h (1 Bft) S 0,00 h 0,000 mm 0,0 UV-I 0 W/m 16,1 C 17,2 C 6,1 km/h (2 Bft) 98,13 %
30.08.2016 00:00 17,3 C 92 % 1019,4 hPa 0,0 l/m 4,6 km/h (1 Bft) S 0,00 h 0,000 mm 0,0 UV-I 0 W/m 16,0 C 17,3 C 7,0 km/h (2 Bft) 98,26 %
30.08.2016 01:00 17,3 C 92 % 1019,5 hPa 0,0 l/m 5,1 km/h (1 Bft) S 0,00 h 0,000 mm 0,0 UV-I 0 W/m 16,0 C 17,3 C 7,8 km/h (2 Bft) 97,70 %
30.08.2016 02:00 17,1 C 93 % 1019,5 hPa 0,0 l/m 4,0 km/h (1 Bft) S 0,00 h 0,000 mm 0,0 UV-I 0 W/m 15,9 C 17,1 C 6,2 km/h (2 Bft) 98,67 %
30.08.2016 03:00 16,6 C 94 % 1019,4 hPa 0,0 l/m 2,0 km/h (1 Bft) S 0,00 h 0,000 mm 0,0 UV-I 0 W/m 15,6 C 16,6 C 4,1 km/h (1 Bft) 98,44 %
30.08.2016 04:00 16,6 C 95 % 1019,6 hPa 0,0 l/m 0,7 km/h (0 Bft) SO 0,00 h 0,000 mm 0,0 UV-I 0 W/m 15,7 C 16,6 C 1,9 km/h (1 Bft) 99,05 %
30.08.2016 05:00 16,4 C 95 % 1019,7 hPa 0,0 l/m 1,9 km/h (1 Bft) N-NO 0,00 h 0,000 mm 0,0 UV-I 0 W/m 15,6 C 16,4 C 3,2 km/h (1 Bft) 98,14 %
30.08.2016 06:00 16,4 C 95 % 1020,3 hPa 0,0 l/m 3,2 km/h (1 Bft) O 0,30 h 0,000 mm 0,0 UV-I 25 W/m 15,6 C 16,4 C 5,4 km/h (1 Bft) 99,16 %
30.08.2016 07:00 16,9 C 95 % 1020,9 hPa 0,2 l/m 2,3 km/h (1 Bft) N-NO 0,00 h 0,025 mm 0,0 UV-I 41 W/m 16,0 C 16,9 C 4,0 km/h (1 Bft) 98,09 %
30.08.2016 08:00 17,1 C 95 % 1021,4 hPa 0,2 l/m 1,8 km/h (1 Bft) SO 0,00 h 0,026 mm 0,6 UV-I 58 W/m 16,3 C 17,1 C 3,8 km/h (1 Bft) 98,43 %
30.08.2016 09:00 18,0 C 92 % 1022,1 hPa 0,0 l/m 2,3 km/h (1 Bft) O-SO 0,03 h 0,025 mm 1,1 UV-I 219 W/m 16,6 C 18,0 C 4,5 km/h (1 Bft) 97,92 %
30.08.2016 10:00 19,4 C 84 % 1022,5 hPa 0,0 l/m 7,1 km/h (2 Bft) NO 0,60 h 0,127 mm 2,1 UV-I 426 W/m 16,6 C 18,8 C 12,2 km/h (2 Bft) 98,74 %
30.08.2016 11:00 19,5 C 81 % 1022,6 hPa 0,0 l/m 6,9 km/h (2 Bft) NO 0,10 h 0,254 mm 2,2 UV-I 297 W/m 16,2 C 19,1 C 11,3 km/h (2 Bft) 97,93 %
30.08.2016 12:00 21,3 C 77 % 1022,3 hPa 0,0 l/m 9,0 km/h (2 Bft) NO 0,87 h 0,178 mm 4,4 UV-I 681 W/m 17,0 C 20,4 C 15,6 km/h (3 Bft) 99,15 %
30.08.2016 13:00 22,0 C 71 % 1022,0 hPa 0,0 l/m 9,5 km/h (2 Bft) NO 0,27 h 0,432 mm 3,3 UV-I 379 W/m 16,4 C 21,0 C 15,6 km/h (3 Bft) 98,15 %
30.08.2016 14:00 23,2 C 66 % 1021,7 hPa 0,0 l/m 9,4 km/h (2 Bft) O-NO 0,70 h 0,279 mm 3,9 UV-I 593 W/m 16,4 C 22,3 C 15,7 km/h (3 Bft) 99,01 %
30.08.2016 15:00 24,0 C 60 % 1021,3 hPa 0,0 l/m 7,1 km/h (2 Bft) NO 0,90 h 0,432 mm 3,0 UV-I 592 W/m 15,7 C 23,6 C 12,3 km/h (3 Bft) 97,56 %
30.08.2016 16:00 23,7 C 59 % 1020,9 hPa 0,0 l/m 7,6 km/h (2 Bft) N-NO 0,60 h 0,406 mm 1,7 UV-I 363 W/m 15,3 C 23,3 C 13,0 km/h (3 Bft) 99,42 %
30.08.2016 17:00 23,9 C 55 % 1020,5 hPa 0,0 l/m 8,4 km/h (2 Bft) NO 1,00 h 0,254 mm 0,9 UV-I 312 W/m 14,4 C 23,3 C 13,0 km/h (3 Bft) 97,58 %
30.08.2016 18:00 23,3 C 57 % 1020,1 hPa 0,0 l/m 8,5 km/h (2 Bft) NO 0,87 h 0,254 mm 0,4 UV-I 160 W/m 14,2 C 22,7 C 14,4 km/h (3 Bft) 99,59 %
30.08.2016 19:00 21,2 C 63 % 1020,4 hPa 0,0 l/m 5,9 km/h (2 Bft) N-NO 0,08 h 0,152 mm 0,0 UV-I 21 W/m 13,9 C 21,0 C 10,7 km/h (2 Bft) 98,83 %
30.08.2016 20:00 18,6 C 73 % 1021,0 hPa 0,0 l/m 3,7 km/h (1 Bft) N-NO 0,00 h 0,052 mm 0,0 UV-I 0 W/m 13,6 C 18,6 C 5,7 km/h (1 Bft) 99,22 %
30.08.2016 21:00 17,6 C 76 % 1021,5 hPa 0,0 l/m 5,8 km/h (2 Bft) NO 0,00 h 0,025 mm 0,0 UV-I 0 W/m 13,4 C 17,2 C 8,9 km/h (2 Bft) 98,26 %
30.08.2016 22:00 17,3 C 76 % 1021,7 hPa 0,0 l/m 7,2 km/h (2 Bft) O-NO 0,00 h 0,025 mm 0,0 UV-I 0 W/m 13,1 C 16,8 C 11,3 km/h (2 Bft) 99,72 %
30.08.2016 23:00 16,6 C 78 % 1021,9 hPa 0,0 l/m 7,8 km/h (2 Bft) NO 0,00 h 0,026 mm 0,0 UV-I 0 W/m 12,7 C 15,9 C 12,6 km/h (3 Bft) 98,43 %
31.08.2016 00:00 15,7 C 81 % 1021,8 hPa 0,0 l/m 6,3 km/h (2 Bft) NO 0,00 h 0,000 mm 0,0 UV-I 0 W/m 12,4 C 15,6 C 9,3 km/h (2 Bft) 99,45 %
31.08.2016 01:00 15,2 C 82 % 1021,5 hPa 0,0 l/m 7,3 km/h (2 Bft) NO 0,00 h 0,025 mm 0,0 UV-I 0 W/m 12,2 C 14,6 C 11,6 km/h (2 Bft) 98,19 %
31.08.2016 02:00 14,9 C 78 % 1021,2 hPa 0,0 l/m 7,8 km/h (2 Bft) NO 0,00 h 0,026 mm 0,0 UV-I 0 W/m 11,2 C 14,1 C 12,7 km/h (3 Bft) 99,28 %
31.08.2016 03:00 14,1 C 81 % 1021,1 hPa 0,0 l/m 7,4 km/h (2 Bft) NO 0,00 h 0,025 mm 0,0 UV-I 0 W/m 11,0 C 13,5 C 11,5 km/h (2 Bft) 97,85 %
31.08.2016 04:00 13,4 C 83 % 1021,0 hPa 0,0 l/m 7,1 km/h (2 Bft) O-NO 0,00 h 0,026 mm 0,0 UV-I 0 W/m 10,5 C 12,9 C 11,3 km/h (2 Bft) 98,87 %
31.08.2016 05:00 12,8 C 83 % 1021,0 hPa 0,0 l/m 7,3 km/h (2 Bft) NO 0,00 h 0,025 mm 0,0 UV-I 0 W/m 10,0 C 12,1 C 11,4 km/h (2 Bft) 97,77 %
31.08.2016 06:00 12,6 C 81 % 1021,1 hPa 0,0 l/m 8,1 km/h (2 Bft) O-NO 0,00 h 0,025 mm 0,0 UV-I 12 W/m 9,5 C 11,6 C 12,8 km/h (3 Bft) 99,36 %
31.08.2016 07:00 13,2 C 79 % 1021,0 hPa 0,0 l/m 11,1 km/h (2 Bft) NO 0,30 h 0,026 mm 0,0 UV-I 90 W/m 9,6 C 10,6 C 17,9 km/h (3 Bft) 97,85 %
31.08.2016 08:00 15,0 C 71 % 1020,8 hPa 0,0 l/m 18,2 km/h (3 Bft) O-NO 0,90 h 0,076 mm 0,8 UV-I 240 W/m 9,7 C 10,4 C 26,1 km/h (4 Bft) 99,31 %
31.08.2016 09:00 16,7 C 65 % 1020,8 hPa 0,0 l/m 18,6 km/h (3 Bft) O-NO 1,00 h 0,203 mm 1,7 UV-I 445 W/m 10,0 C 12,2 C 26,3 km/h (4 Bft) 97,85 %
31.08.2016 10:00 18,7 C 58 % 1020,7 hPa 0,0 l/m 18,5 km/h (3 Bft) O-NO 1,00 h 0,330 mm 3,0 UV-I 587 W/m 10,3 C 14,9 C 26,6 km/h (4 Bft) 99,14 %
31.08.2016 11:00 20,4 C 54 % 1020,5 hPa 0,0 l/m 19,9 km/h (4 Bft) O-NO 1,00 h 0,432 mm 4,3 UV-I 691 W/m 10,9 C 16,8 C 28,6 km/h (4 Bft) 98,57 %
31.08.2016 12:00 21,8 C 53 % 1020,1 hPa 0,0 l/m 19,7 km/h (3 Bft) O-NO 1,00 h 0,534 mm 5,0 UV-I 749 W/m 11,7 C 18,6 C 28,7 km/h (4 Bft) 99,13 %
31.08.2016 13:00 23,1 C 51 % 1019,9 hPa 0,0 l/m 17,4 km/h (3 Bft) O-NO 1,00 h 0,584 mm 5,1 UV-I 759 W/m 12,3 C 20,6 C 24,6 km/h (4 Bft) 97,71 %
31.08.2016 14:00 23,9 C 48 % 1019,4 hPa 0,0 l/m 16,7 km/h (3 Bft) O-NO 1,00 h 0,584 mm 4,4 UV-I 718 W/m 12,3 C 21,7 C 23,8 km/h (4 Bft) 98,46 %
31.08.2016 15:00 24,7 C 47 % 1018,8 hPa 0,0 l/m 14,1 km/h (3 Bft) NO 1,00 h 0,559 mm 3,3 UV-I 626 W/m 12,6 C 23,1 C 20,9 km/h (4 Bft) 98,08 %
31.08.2016 16:00 24,8 C 46 % 1018,5 hPa 0,0 l/m 14,7 km/h (3 Bft) NO 1,00 h 0,508 mm 2,0 UV-I 493 W/m 12,4 C 23,1 C 21,4 km/h (4 Bft) 98,36 %
31.08.2016 17:00 24,5 C 49 % 1018,3 hPa 0,0 l/m 14,1 km/h (3 Bft) O-NO 1,00 h 0,432 mm 0,9 UV-I 327 W/m 13,0 C 22,9 C 20,2 km/h (4 Bft) 98,72 %
31.08.2016 18:00 23,4 C 53 % 1017,9 hPa 0,0 l/m 13,7 km/h (3 Bft) O-NO 0,87 h 0,304 mm 0,5 UV-I 143 W/m 13,4 C 21,7 C 19,6 km/h (3 Bft) 98,56 %
31.08.2016 19:00 21,5 C 58 % 1017,8 hPa 0,0 l/m 11,1 km/h (2 Bft) O-NO 0,03 h 0,178 mm 0,0 UV-I 18 W/m 13,0 C 20,1 C 17,1 km/h (3 Bft) 98,77 %
31.08.2016 20:00 19,4 C 66 % 1018,3 hPa 0,0 l/m 4,9 km/h (1 Bft) O-NO 0,00 h 0,076 mm 0,0 UV-I 0 W/m 12,7 C 19,1 C 7,7 km/h (2 Bft) 98,25 %
31.08.2016 21:00 18,4 C 68 % 1018,6 hPa 0,0 l/m 5,3 km/h (1 Bft) O-NO 0,00 h 0,026 mm 0,0 UV-I 0 W/m 12,4 C 18,3 C 7,8 km/h (2 Bft) 98,65 %
31.08.2016 22:00 17,2 C 72 % 1018,8 hPa 0,0 l/m 1,7 km/h (1 Bft) O-NO 0,00 h 0,025 mm 0,0 UV-I 0 W/m 12,1 C 17,2 C 2,7 km/h (1 Bft) 98,35 %
31.08.2016 23:00 15,1 C 82 % 1019,1 hPa 0,0 l/m 0,1 km/h (0 Bft) O 0,00 h 0,000 mm 0,0 UV-I 0 W/m 12,1 C 15,1 C 0,6 km/h (0 Bft) 98,55 %
01.09.2016 00:00 13,8 C 87 % 1019,2 hPa 0,0 l/m 1,5 km/h (1 Bft) O 0,00 h 0,000 mm 0,0 UV-I 0 W/m 11,6 C 13,8 C 2,6 km/h (1 Bft) 97,83 %
01.09.2016 01:00 13,3 C 90 % 1019,4 hPa 0,0 l/m 1,9 km/h (1 Bft) S-SO 0,00 h 0,000 mm 0,0 UV-I 0 W/m 11,7 C 13,3 C 3,3 km/h (1 Bft) 98,81 %
01.09.2016 02:00 13,2 C 92 % 1019,4 hPa 0,0 l/m 2,6 km/h (1 Bft) S 0,00 h 0,000 mm 0,0 UV-I 0 W/m 12,0 C 13,2 C 4,1 km/h (1 Bft) 98,15 %
01.09.2016 03:00 12,8 C 93 % 1019,4 hPa 0,0 l/m 1,8 km/h (1 Bft) S 0,00 h 0,000 mm 0,0 UV-I 0 W/m 11,7 C 12,8 C 3,3 km/h (1 Bft) 98,31 %
01.09.2016 04:00 12,5 C 93 % 1019,5 hPa 0,0 l/m 0,7 km/h (0 Bft) S 0,00 h 0,000 mm 0,0 UV-I 0 W/m 11,5 C 12,5 C 1,7 km/h (1 Bft) 98,02 %
01.09.2016 05:00 12,1 C 94 % 1019,6 hPa 0,0 l/m 0,3 km/h (0 Bft) S 0,00 h 0,000 mm 0,0 UV-I 0 W/m 11,2 C 12,1 C 1,0 km/h (0 Bft) 99,01 %
01.09.2016 06:00 11,9 C 95 % 1019,8 hPa 0,0 l/m 0,5 km/h (0 Bft) S 0,07 h 0,000 mm 0,0 UV-I 15 W/m 11,1 C 11,9 C 1,1 km/h (0 Bft) 98,95 %
01.09.2016 07:00 13,1 C 95 % 1020,2 hPa 0,0 l/m 0,4 km/h (0 Bft) S 0,20 h 0,000 mm 0,0 UV-I 83 W/m 12,4 C 13,1 C 1,3 km/h (1 Bft) 98,48 %
01.09.2016 08:00 15,8 C 91 % 1020,5 hPa 0,0 l/m 1,9 km/h (1 Bft) S 0,77 h 0,051 mm 0,7 UV-I 212 W/m 14,4 C 15,8 C 3,6 km/h (1 Bft) 98,78 %
01.09.2016 09:00 17,1 C 86 % 1020,8 hPa 0,0 l/m 1,1 km/h (1 Bft) S-SW 0,00 h 0,127 mm 1,3 UV-I 213 W/m 14,7 C 17,1 C 2,9 km/h (1 Bft) 97,72 %
01.09.2016 10:00 19,1 C 79 % 1021,0 hPa 0,0 l/m 2,1 km/h (1 Bft) S-SO 0,80 h 0,127 mm 2,8 UV-I 501 W/m 15,3 C 19,0 C 4,9 km/h (1 Bft) 99,08 %
01.09.2016 11:00 21,6 C 72 % 1021,0 hPa 0,0 l/m 4,2 km/h (1 Bft) W-SW 0,95 h 0,305 mm 4,0 UV-I 661 W/m 16,3 C 21,5 C 8,2 km/h (2 Bft) 98,31 %
01.09.2016 12:00 23,5 C 64 % 1020,6 hPa 0,0 l/m 6,2 km/h (2 Bft) W 1,00 h 0,406 mm 4,8 UV-I 717 W/m 16,3 C 23,3 C 11,1 km/h (2 Bft) 98,76 %
01.09.2016 13:00 25,2 C 54 % 1020,0 hPa 0,0 l/m 4,7 km/h (1 Bft) W-SW 1,05 h 0,483 mm 4,8 UV-I 733 W/m 15,2 C 25,1 C 10,0 km/h (2 Bft) 97,54 %
01.09.2016 14:00 26,0 C 50 % 1019,7 hPa 0,0 l/m 5,8 km/h (2 Bft) W-SW 0,87 h 0,482 mm 3,8 UV-I 612 W/m 14,6 C 25,9 C 12,2 km/h (2 Bft) 98,62 %
01.09.2016 15:00 26,3 C 48 % 1019,4 hPa 0,0 l/m 6,8 km/h (2 Bft) W-SW 0,93 h 0,432 mm 3,0 UV-I 578 W/m 14,3 C 26,0 C 12,6 km/h (3 Bft) 98,74 %
01.09.2016 16:00 26,5 C 48 % 1019,2 hPa 0,0 l/m 5,2 km/h (1 Bft) W-SW 1,00 h 0,432 mm 1,8 UV-I 463 W/m 14,5 C 26,4 C 10,1 km/h (2 Bft) 98,83 %
01.09.2016 17:00 24,8 C 54 % 1019,0 hPa 0,0 l/m 2,2 km/h (1 Bft) W 0,13 h 0,330 mm 0,7 UV-I 74 W/m 14,7 C 24,8 C 4,7 km/h (1 Bft) 98,77 %
01.09.2016 18:00 20,7 C 79 % 1019,5 hPa 0,4 l/m 9,0 km/h (2 Bft) S 0,07 h 0,076 mm 0,0 UV-I 39 W/m 16,9 C 19,7 C 15,4 km/h (3 Bft) 98,48 %
01.09.2016 19:00 18,8 C 87 % 1019,5 hPa 0,0 l/m 6,1 km/h (2 Bft) S 0,13 h 0,051 mm 0,0 UV-I 22 W/m 16,6 C 18,4 C 10,1 km/h (2 Bft) 98,74 %
01.09.2016 20:00 17,9 C 88 % 1019,8 hPa 0,0 l/m 5,5 km/h (1 Bft) S 0,00 h 0,025 mm 0,0 UV-I 0 W/m 15,9 C 17,9 C 8,5 km/h (2 Bft) 98,58 %
01.09.2016 21:00 17,7 C 89 % 1019,9 hPa 0,0 l/m 6,0 km/h (2 Bft) S-SW 0,00 h 0,000 mm 0,0 UV-I 0 W/m 15,9 C 17,5 C 9,0 km/h (2 Bft) 98,86 %
01.09.2016 22:00 17,4 C 90 % 1020,1 hPa 0,0 l/m 1,9 km/h (1 Bft) S 0,00 h 0,000 mm 0,0 UV-I 0 W/m 15,7 C 17,4 C 3,4 km/h (1 Bft) 98,63 %
01.09.2016 23:00 16,6 C 93 % 1020,2 hPa 0,0 l/m 1,1 km/h (0 Bft) S 0,00 h 0,000 mm 0,0 UV-I 0 W/m 15,5 C 16,6 C 2,3 km/h (1 Bft) 99,02 %
02.09.2016 00:00 16,5 C 94 % 1020,0 hPa 0,0 l/m 2,5 km/h (1 Bft) S 0,00 h 0,000 mm 0,0 UV-I 0 W/m 15,5 C 16,5 C 4,1 km/h (1 Bft) 98,73 %
02.09.2016 01:00 16,5 C 94 % 1019,9 hPa 0,0 l/m 0,6 km/h (0 Bft) SW 0,00 h 0,000 mm 0,0 UV-I 0 W/m 15,5 C 16,5 C 1,5 km/h (1 Bft) 99,09 %
02.09.2016 02:00 16,3 C 94 % 1019,8 hPa 0,0 l/m 2,1 km/h (1 Bft) S 0,00 h 0,000 mm 0,0 UV-I 0 W/m 15,4 C 16,3 C 3,9 km/h (1 Bft) 98,99 %
02.09.2016 03:00 15,9 C 95 % 1019,6 hPa 0,0 l/m 0,6 km/h (0 Bft) S 0,00 h 0,000 mm 0,0 UV-I 0 W/m 15,1 C 15,9 C 1,7 km/h (1 Bft) 98,91 %
02.09.2016 04:00 15,3 C 96 % 1019,4 hPa 0,0 l/m 2,4 km/h (1 Bft) S 0,00 h 0,000 mm 0,0 UV-I 0 W/m 14,6 C 15,3 C 3,8 km/h (1 Bft) 98,76 %
02.09.2016 05:00 15,3 C 96 % 1019,5 hPa 0,0 l/m 1,3 km/h (1 Bft) S 0,00 h 0,000 mm 0,0 UV-I 0 W/m 14,7 C 15,3 C 2,7 km/h (1 Bft) 98,57 %
02.09.2016 06:00 15,3 C 96 % 1019,8 hPa 0,0 l/m 2,5 km/h (1 Bft) S 0,03 h 0,000 mm 0,0 UV-I 16 W/m 14,7 C 15,3 C 4,1 km/h (1 Bft) 98,46 %
02.09.2016 07:00 16,0 C 96 % 1020,0 hPa 0,2 l/m 4,1 km/h (1 Bft) S-SW 0,30 h 0,000 mm 0,0 UV-I 87 W/m 15,3 C 16,0 C 6,2 km/h (2 Bft) 98,73 %
02.09.2016 08:00 17,7 C 92 % 1020,0 hPa 0,0 l/m 4,9 km/h (1 Bft) SW 0,70 h 0,051 mm 0,7 UV-I 211 W/m 16,3 C 17,7 C 8,2 km/h (2 Bft) 98,90 %
02.09.2016 09:00 19,8 C 83 % 1020,3 hPa 0,0 l/m 5,0 km/h (1 Bft) W-SW 1,00 h 0,127 mm 1,6 UV-I 398 W/m 16,9 C 19,8 C 8,2 km/h (2 Bft) 98,66 %
02.09.2016 10:00 21,3 C 75 % 1020,3 hPa 0,0 l/m 5,4 km/h (1 Bft) W-SW 1,00 h 0,254 mm 2,7 UV-I 543 W/m 16,7 C 21,3 C 10,0 km/h (2 Bft) 98,69 %
02.09.2016 11:00 22,9 C 68 % 1020,0 hPa 0,0 l/m 5,9 km/h (2 Bft) SW 1,00 h 0,330 mm 3,9 UV-I 641 W/m 16,6 C 22,7 C 10,2 km/h (2 Bft) 98,61 %
02.09.2016 12:00 24,3 C 60 % 1019,5 hPa 0,0 l/m 5,1 km/h (1 Bft) W-SW 0,83 h 0,406 mm 4,0 UV-I 607 W/m 16,0 C 24,2 C 10,0 km/h (2 Bft) 98,18 %
02.09.2016 13:00 25,0 C 51 % 1019,2 hPa 0,0 l/m 5,5 km/h (1 Bft) W-SW 0,97 h 0,407 mm 4,3 UV-I 640 W/m 14,1 C 24,9 C 10,5 km/h (2 Bft) 99,00 %
02.09.2016 14:00 25,6 C 49 % 1018,7 hPa 0,0 l/m 9,6 km/h (2 Bft) W-SW 1,00 h 0,457 mm 4,1 UV-I 680 W/m 14,0 C 25,0 C 16,0 km/h (3 Bft) 98,27 %
02.09.2016 15:00 26,0 C 46 % 1018,4 hPa 0,0 l/m 8,5 km/h (2 Bft) W-SW 1,00 h 0,508 mm 3,1 UV-I 613 W/m 13,4 C 25,5 C 14,2 km/h (3 Bft) 99,07 %
02.09.2016 16:00 26,2 C 43 % 1018,0 hPa 0,0 l/m 8,3 km/h (2 Bft) SW 1,00 h 0,457 mm 1,9 UV-I 474 W/m 12,5 C 25,8 C 13,9 km/h (3 Bft) 98,50 %
02.09.2016 17:00 25,8 C 42 % 1017,6 hPa 0,0 l/m 5,2 km/h (1 Bft) W-SW 1,00 h 0,381 mm 0,8 UV-I 303 W/m 11,9 C 25,7 C 9,9 km/h (2 Bft) 98,67 %
02.09.2016 18:00 24,8 C 48 % 1017,4 hPa 0,0 l/m 1,5 km/h (1 Bft) W 0,67 h 0,254 mm 0,3 UV-I 115 W/m 12,8 C 24,8 C 3,9 km/h (1 Bft) 97,88 %
02.09.2016 19:00 21,6 C 65 % 1017,5 hPa 0,0 l/m 1,3 km/h (1 Bft) NW 0,23 h 0,102 mm 0,0 UV-I 24 W/m 14,7 C 21,6 C 2,8 km/h (1 Bft) 99,00 %
02.09.2016 20:00 19,0 C 74 % 1017,9 hPa 0,0 l/m 0,5 km/h (0 Bft) NW 0,00 h 0,025 mm 0,0 UV-I 0 W/m 14,3 C 19,0 C 1,9 km/h (1 Bft) 97,74 %
02.09.2016 21:00 18,1 C 77 % 1018,1 hPa 0,0 l/m 2,3 km/h (1 Bft) S 0,00 h 0,000 mm 0,0 UV-I 0 W/m 14,0 C 18,1 C 3,9 km/h (1 Bft) 98,47 %
02.09.2016 22:00 17,9 C 80 % 1018,2 hPa 0,0 l/m 4,7 km/h (1 Bft) S 0,00 h 0,026 mm 0,0 UV-I 0 W/m 14,4 C 17,9 C 6,8 km/h (2 Bft) 98,42 %
02.09.2016 23:00 16,8 C 85 % 1018,4 hPa 0,0 l/m 3,9 km/h (1 Bft) S-SW 0,00 h 0,025 mm 0,0 UV-I 0 W/m 14,2 C 16,8 C 5,8 km/h (2 Bft) 98,50 %
03.09.2016 00:00 16,6 C 85 % 1018,4 hPa 0,0 l/m 6,3 km/h (2 Bft) S-SW 0,00 h 0,000 mm 0,0 UV-I 0 W/m 14,0 C 16,4 C 8,9 km/h (2 Bft) 98,50 %
03.09.2016 01:00 15,8 C 86 % 1018,4 hPa 0,0 l/m 3,5 km/h (1 Bft) S-SO 0,00 h 0,025 mm 0,0 UV-I 0 W/m 13,6 C 15,8 C 5,4 km/h (1 Bft) 98,42 %
03.09.2016 02:00 14,6 C 90 % 1018,4 hPa 0,0 l/m 1,9 km/h (1 Bft) S-SO 0,00 h 0,000 mm 0,0 UV-I 0 W/m 13,0 C 14,6 C 3,8 km/h (1 Bft) 98,09 %
03.09.2016 03:00 14,2 C 91 % 1018,3 hPa 0,0 l/m 1,1 km/h (1 Bft) S-SO 0,00 h 0,000 mm 0,0 UV-I 0 W/m 12,8 C 14,2 C 2,3 km/h (1 Bft) 98,00 %
03.09.2016 04:00 14,0 C 91 % 1018,3 hPa 0,0 l/m 1,2 km/h (1 Bft) S-SO 0,00 h 0,000 mm 0,0 UV-I 0 W/m 12,5 C 14,0 C 2,3 km/h (1 Bft) 98,08 %
03.09.2016 05:00 13,5 C 92 % 1018,3 hPa 0,0 l/m 0,6 km/h (0 Bft) S 0,00 h 0,000 mm 0,0 UV-I 0 W/m 12,3 C 13,5 C 1,6 km/h (1 Bft) 98,34 %
03.09.2016 06:00 13,3 C 93 % 1018,2 hPa 0,0 l/m 0,1 km/h (0 Bft) N 0,30 h 0,000 mm 0,0 UV-I 22 W/m 12,1 C 13,3 C 0,8 km/h (0 Bft) 98,75 %
03.09.2016 07:00 13,8 C 93 % 1018,2 hPa 0,0 l/m 0,1 km/h (0 Bft) S 0,03 h 0,000 mm 0,0 UV-I 81 W/m 12,7 C 13,8 C 0,6 km/h (0 Bft) 97,97 %
03.09.2016 08:00 15,5 C 89 % 1018,5 hPa 0,0 l/m 0,2 km/h (0 Bft) S 0,00 h 0,051 mm 0,6 UV-I 150 W/m 13,7 C 15,5 C 0,7 km/h (0 Bft) 98,38 %
03.09.2016 09:00 17,1 C 85 % 1018,9 hPa 0,0 l/m 0,6 km/h (0 Bft) SW 0,40 h 0,076 mm 1,2 UV-I 241 W/m 14,6 C 17,1 C 2,0 km/h (1 Bft) 98,14 %
03.09.2016 10:00 19,3 C 79 % 1018,9 hPa 0,0 l/m 2,0 km/h (1 Bft) S-SO 0,97 h 0,127 mm 2,7 UV-I 539 W/m 15,5 C 19,3 C 4,2 km/h (1 Bft) 98,42 %
03.09.2016 11:00 22,0 C 70 % 1018,9 hPa 0,0 l/m 3,4 km/h (1 Bft) S-SW 1,00 h 0,305 mm 3,9 UV-I 646 W/m 16,3 C 22,0 C 6,6 km/h (2 Bft) 98,31 %
03.09.2016 12:00 23,8 C 62 % 1018,3 hPa 0,0 l/m 3,1 km/h (1 Bft) S-SW 1,00 h 0,407 mm 4,6 UV-I 703 W/m 16,1 C 23,7 C 6,3 km/h (2 Bft) 98,55 %
03.09.2016 13:00 25,2 C 59 % 1017,8 hPa 0,0 l/m 3,4 km/h (1 Bft) W-NW 1,00 h 0,431 mm 4,6 UV-I 709 W/m 16,6 C 25,2 C 7,4 km/h (2 Bft) 98,70 %
03.09.2016 14:00 25,6 C 58 % 1017,2 hPa 0,0 l/m 4,1 km/h (1 Bft) W 0,50 h 0,458 mm 2,9 UV-I 453 W/m 16,6 C 25,5 C 7,8 km/h (2 Bft) 98,27 %
03.09.2016 15:00 25,8 C 58 % 1016,9 hPa 0,0 l/m 3,7 km/h (1 Bft) W-NW 0,53 h 0,304 mm 2,3 UV-I 422 W/m 17,0 C 25,8 C 8,1 km/h (2 Bft) 98,79 %
03.09.2016 16:00 26,2 C 56 % 1016,4 hPa 0,0 l/m 3,8 km/h (1 Bft) NW 0,77 h 0,305 mm 1,7 UV-I 397 W/m 16,7 C 26,2 C 8,3 km/h (2 Bft) 98,24 %
03.09.2016 17:00 26,0 C 53 % 1016,2 hPa 0,0 l/m 3,4 km/h (1 Bft) W-SW 0,77 h 0,280 mm 0,8 UV-I 248 W/m 15,8 C 26,0 C 7,3 km/h (2 Bft) 98,96 %
03.09.2016 18:00 25,0 C 56 % 1016,1 hPa 0,0 l/m 2,7 km/h (1 Bft) W 0,67 h 0,177 mm 0,0 UV-I 124 W/m 15,5 C 25,0 C 5,6 km/h (1 Bft) 98,09 %
03.09.2016 19:00 22,8 C 63 % 1016,2 hPa 0,0 l/m 2,3 km/h (1 Bft) W 0,10 h 0,102 mm 0,0 UV-I 23 W/m 15,2 C 22,8 C 3,9 km/h (1 Bft) 99,36 %
03.09.2016 20:00 19,8 C 78 % 1016,5 hPa 0,0 l/m 1,5 km/h (1 Bft) S 0,00 h 0,025 mm 0,0 UV-I 0 W/m 15,8 C 19,8 C 3,1 km/h (1 Bft) 97,51 %
03.09.2016 21:00 19,5 C 79 % 1016,7 hPa 0,0 l/m 2,6 km/h (1 Bft) S 0,00 h 0,000 mm 0,0 UV-I 0 W/m 15,7 C 19,5 C 4,7 km/h (1 Bft) 98,85 %
03.09.2016 22:00 19,1 C 81 % 1016,5 hPa 0,0 l/m 2,9 km/h (1 Bft) S 0,00 h 0,026 mm 0,0 UV-I 0 W/m 15,7 C 19,1 C 4,6 km/h (1 Bft) 98,01 %
03.09.2016 23:00 18,7 C 82 % 1016,4 hPa 0,0 l/m 3,9 km/h (1 Bft) S 0,00 h 0,000 mm 0,0 UV-I 0 W/m 15,5 C 18,7 C 5,7 km/h (1 Bft) 99,06 %
04.09.2016 00:00 18,5 C 82 % 1016,2 hPa 0,0 l/m 4,8 km/h (1 Bft) S 0,00 h 0,000 mm 0,0 UV-I 0 W/m 15,4 C 18,5 C 7,1 km/h (2 Bft) 97,54 %
04.09.2016 01:00 18,2 C 84 % 1015,9 hPa 0,0 l/m 4,0 km/h (1 Bft) S 0,00 h 0,025 mm 0,0 UV-I 0 W/m 15,4 C 18,2 C 6,0 km/h (2 Bft) 99,01 %
04.09.2016 02:00 17,3 C 88 % 1015,8 hPa 0,0 l/m 1,1 km/h (1 Bft) S 0,00 h 0,000 mm 0,0 UV-I 0 W/m 15,2 C 17,3 C 2,1 km/h (1 Bft) 97,20 %
04.09.2016 03:00 16,7 C 89 % 1015,7 hPa 0,0 l/m 0,2 km/h (0 Bft) S 0,00 h 0,000 mm 0,0 UV-I 0 W/m 14,9 C 16,7 C 0,7 km/h (0 Bft) 99,51 %
04.09.2016 04:00 15,7 C 92 % 1015,4 hPa 0,0 l/m 0,0 km/h (0 Bft) N 0,00 h 0,000 mm 0,0 UV-I 0 W/m 14,4 C 15,7 C 0,2 km/h (0 Bft) 97,92 %
04.09.2016 05:00 15,0 C 93 % 1015,4 hPa 0,0 l/m 0,0 km/h (0 Bft) N 0,00 h 0,000 mm 0,0 UV-I 0 W/m 13,9 C 15,0 C 0,0 km/h (0 Bft) 99,29 %
04.09.2016 06:00 14,6 C 94 % 1015,4 hPa 0,0 l/m 0,2 km/h (0 Bft) S 0,00 h 0,000 mm 0,0 UV-I 15 W/m 13,7 C 14,6 C 0,4 km/h (0 Bft) 97,65 %
04.09.2016 07:00 14,9 C 95 % 1015,8 hPa 0,0 l/m 0,3 km/h (0 Bft) S 0,23 h 0,000 mm 0,0 UV-I 71 W/m 14,0 C 14,9 C 0,6 km/h (0 Bft) 99,44 %
04.09.2016 08:00 17,7 C 88 % 1015,8 hPa 0,0 l/m 1,9 km/h (1 Bft) S 0,83 h 0,051 mm 0,7 UV-I 224 W/m 15,6 C 17,7 C 3,5 km/h (1 Bft) 97,73 %
04.09.2016 09:00 20,6 C 78 % 1015,4 hPa 0,0 l/m 2,9 km/h (1 Bft) SO 1,00 h 0,127 mm 1,6 UV-I 412 W/m 16,6 C 20,6 C 5,8 km/h (2 Bft) 98,67 %
04.09.2016 10:00 23,0 C 70 % 1014,8 hPa 0,0 l/m 4,2 km/h (1 Bft) O-NO 1,00 h 0,254 mm 2,9 UV-I 548 W/m 17,2 C 23,0 C 7,2 km/h (2 Bft) 98,15 %
04.09.2016 11:00 24,5 C 62 % 1014,2 hPa 0,0 l/m 2,6 km/h (1 Bft) O-NO 1,00 h 0,356 mm 4,0 UV-I 660 W/m 16,7 C 24,5 C 5,1 km/h (1 Bft) 99,29 %
04.09.2016 12:00 25,9 C 53 % 1013,6 hPa 0,0 l/m 3,4 km/h (1 Bft) W-SW 1,00 h 0,432 mm 4,5 UV-I 674 W/m 15,6 C 25,9 C 6,9 km/h (2 Bft) 98,16 %
04.09.2016 13:00 27,1 C 47 % 1013,1 hPa 0,0 l/m 6,5 km/h (2 Bft) W-SW 0,87 h 0,457 mm 4,1 UV-I 617 W/m 14,9 C 27,0 C 12,4 km/h (3 Bft) 99,41 %
04.09.2016 14:00 27,3 C 51 % 1012,7 hPa 0,0 l/m 4,0 km/h (1 Bft) W-NW 0,80 h 0,457 mm 3,2 UV-I 535 W/m 16,1 C 27,3 C 9,2 km/h (2 Bft) 98,00 %
04.09.2016 15:00 27,4 C 47 % 1012,1 hPa 0,0 l/m 5,0 km/h (1 Bft) W-SW 0,60 h 0,381 mm 2,4 UV-I 442 W/m 15,2 C 27,3 C 9,9 km/h (2 Bft) 99,07 %
04.09.2016 16:00 26,7 C 45 % 1011,7 hPa 0,0 l/m 12,4 km/h (3 Bft) W-SW 0,43 h 0,330 mm 1,2 UV-I 243 W/m 13,7 C 25,8 C 20,3 km/h (4 Bft) 98,03 %
04.09.2016 17:00 25,2 C 49 % 1011,5 hPa 0,0 l/m 8,4 km/h (2 Bft) SW 0,00 h 0,280 mm 0,5 UV-I 66 W/m 13,6 C 24,7 C 13,4 km/h (3 Bft) 98,99 %
04.09.2016 18:00 23,8 C 57 % 1011,5 hPa 0,0 l/m 6,6 km/h (2 Bft) SW 0,00 h 0,127 mm 0,0 UV-I 37 W/m 14,7 C 23,7 C 10,2 km/h (2 Bft) 97,98 %
04.09.2016 19:00 23,0 C 61 % 1011,4 hPa 0,0 l/m 7,3 km/h (2 Bft) SW 0,00 h 0,076 mm 0,0 UV-I 13 W/m 15,2 C 22,7 C 11,5 km/h (2 Bft) 99,30 %
04.09.2016 20:00 22,0 C 65 % 1011,7 hPa 0,0 l/m 8,0 km/h (2 Bft) SW 0,00 h 0,051 mm 0,0 UV-I 0 W/m 15,0 C 21,5 C 12,0 km/h (2 Bft) 97,82 %
04.09.2016 21:00 22,0 C 60 % 1011,9 hPa 0,0 l/m 13,9 km/h (3 Bft) W-SW 0,00 h 0,050 mm 0,0 UV-I 0 W/m 13,7 C 20,0 C 21,6 km/h (4 Bft) 98,78 %
04.09.2016 22:00 22,0 C 56 % 1012,1 hPa 0,0 l/m 17,6 km/h (3 Bft) W-SW 0,00 h 0,102 mm 0,0 UV-I 0 W/m 12,7 C 19,2 C 26,5 km/h (4 Bft) 98,09 %
04.09.2016 23:00 21,3 C 58 % 1012,3 hPa 0,0 l/m 19,5 km/h (3 Bft) W-SW 0,00 h 0,127 mm 0,0 UV-I 0 W/m 12,7 C 18,0 C 29,1 km/h (5 Bft) 99,09 %
Min-Datum _ 01.09.16 02.09.16 04.09.16 - 29.08.16 - - - - - 31.08.16 31.08.16 29.08.16 01.09.16
_ Min-Zeit 06:18 17:14 19:02 - 02:48 - - - - - 07:12 07:10 02:48 13:15
Minimum _ 11,7 C 39 % 1011,3 hPa - 0,0 km/h (0 Bft) - - - - - 9,3 C 8,7 C 0,0 km/h (0 Bft) 77,19 %
Max-Datum _ 04.09.16 30.08.16 30.08.16 29.08.16 04.09.16 - 30.08.16 31.08.16 31.08.16 01.09.16 29.08.16 04.09.16 04.09.16 29.08.16
_ Max-Zeit 13:42 05:56 10:40 15:22 22:28 - 18:45 13:00 13:10 14:38 12:26 15:28 23:58 00:00
Maximum _ 27,8 C 96 % 1022,7 hPa 1,2 l/m 26,5 km/h
W-SW (4 Bft)
- 0,08 h 0,584 mm 5,2 UV-I 927 W/m 18,9 C 27,8 C 41,8 km/h
W-SW (6 Bft)
100,00 %
Durchschnitt _ 19,5 C 76 % 1018,2 hPa #3,4 l/m 5,2 km/h (1 Bft) S #53:43 h #23,622 mm 2,4 UV-I 327 W/m 14,7 C 19,1 C 8,7 km/h (2 Bft) 98,52 %